Time;durP1;ratioP1;P1;durP2;ratioP2;P2;SDS_P1;SDS_P2;PMS_P1;PMS_P2;Temp;Humidity;BMP_temperature;BMP_pressure;BME280_temperature;BME280_humidity;BME280_pressure;Samples;Min_cycle;Max_cycle;Signal;HPM_P1;HPM_P2
2022/06/12 00:00:38;;;;;;;;;;;;;;;;;;4978594;28;7221;-54
2022/06/12 00:03:07;;;;;;;;;;;;;;;;;;4977657;28;6818;-54
2022/06/12 00:05:35;;;;;;;;;;;;;;;;;;4978974;28;7081;-53
2022/06/12 00:08:12;;;;;;;;;;;;;;;;;;4978557;28;7017;-55
2022/06/12 00:10:40;;;;;;;;;;;;;;;;;;4977983;28;6836;-55
2022/06/12 00:13:22;;;;;;;;;;;;;;;;;;4978155;28;7158;-52
2022/06/12 00:15:48;;;;;;;;;;;;;;;;;;4978508;28;7430;-51
2022/06/12 00:18:32;;;;;;;;;;;;;;;;;;4978225;28;7039;-54
2022/06/12 00:21:17;;;;;;;;;;;;;;;;;;4978071;28;7399;-54
2022/06/12 00:23:46;;;;;;;;;;;;;;;;;;4977796;28;6819;-53
2022/06/12 00:26:16;;;;;;;;;;;;;;;;;;4978477;28;7114;-55
2022/06/12 00:28:42;;;;;;;;;;;;;;;;;;4977679;28;6826;-55
2022/06/12 00:31:25;;;;;;;;;;;;;;;;;;4976629;28;7119;-52
2022/06/12 00:33:51;;;;;;;;;;;;;;;;;;4977413;28;7351;-55
2022/06/12 00:36:22;;;;;;;;;;;;;;;;;;4977175;28;7080;-54
2022/06/12 00:38:47;;;;;;;;;;;;;;;;;;4977924;28;7414;-54
2022/06/12 00:41:13;;;;;;;;;;;;;;;;;;4977538;28;7360;-55
2022/06/12 00:46:50;;;;;;;;;;;;;;;;;;4978174;28;6685;-53
2022/06/12 00:49:43;;;;;;;;;;;;;;;;;;4977955;28;7180;-53
2022/06/12 00:52:33;;;;;;;;;;;;;;;;;;4955792;28;7366;-55
2022/06/12 00:55:04;;;;;;;;;;;;;;;;;;4977675;28;7153;-53
2022/06/12 00:57:30;;;;;;;;;;;;;;;;;;4977370;28;6999;-54
2022/06/12 00:59:59;;;;;;;;;;;;;;;;;;4977690;28;7205;-53
2022/06/12 01:02:33;;;;;;;;;;;;;;;;;;4976414;28;7075;-53
2022/06/12 01:08:02;;;;;;;;;;;;;;;;;;4976718;28;6949;-50
2022/06/12 01:10:29;;;;;;;;;;;;;;;;;;4976473;28;7064;-56
2022/06/12 01:12:58;;;;;;;;;;;;;;;;;;4976897;28;7280;-54
2022/06/12 01:15:28;;;;;;;;;;;;;;;;;;4978057;28;8087;-55
2022/06/12 01:17:55;;;;;;;;;;;;;;;;;;4977450;28;6952;-55
2022/06/12 01:20:27;;;;;;;;;;;;;;;;;;4977241;28;6849;-55
2022/06/12 01:23:11;;;;;;;;;;;;;;;;;;4977663;28;7171;-53
2022/06/12 01:25:42;;;;;;;;;;;;;;;;;;4976774;28;6967;-59
2022/06/12 01:30:56;;;;;;;;;;;;;;;;;;4977098;28;6988;-60
2022/06/12 01:33:26;;;;;;;;;;;;;;;;;;4977082;28;7124;-60
2022/06/12 01:35:51;;;;;;;;;;;;;;;;;;4978676;28;7053;-60
2022/06/12 01:38:53;;;;;;;;;;;;;;;;;;4976429;28;7019;-60
2022/06/12 01:41:29;;;;;;;;;;;;;;;;;;4918102;29;7149;-60
2022/06/12 01:44:20;;;;;;;;;;;;;;;;;;4967397;28;7127;-60
2022/06/12 01:47:03;;;;;;;;;;;;;;;;;;4974978;28;8447;-60
2022/06/12 01:49:39;;;;;;;;;;;;;;;;;;4975401;28;7316;-60
2022/06/12 01:52:08;;;;;;;;;;;;;;;;;;4976634;28;6997;-60
2022/06/12 01:54:47;;;;;;;;;;;;;;;;;;4977602;28;7129;-60
2022/06/12 01:57:27;;;;;;;;;;;;;;;;;;4976624;28;6971;-60
2022/06/12 02:00:09;;;;;;;;;;;;;;;;;;4975898;28;7219;-60
2022/06/12 02:02:44;;;;;;;;;;;;;;;;;;4975642;28;8110;-60
2022/06/12 02:05:30;;;;;;;;;;;;;;;;;;4976697;28;7102;-60
2022/06/12 02:08:02;;;;;;;;;;;;;;;;;;4977604;28;7031;-60
2022/06/12 02:10:46;;;;;;;;;;;;;;;;;;4977516;28;7132;-60
2022/06/12 02:13:28;;;;;;;;;;;;;;;;;;4975538;28;7084;-60
2022/06/12 02:16:30;;;;;;;;;;;;;;;;;;4975762;28;7441;-60
2022/06/12 02:19:00;;;;;;;;;;;;;;;;;;4976206;28;6933;-60
2022/06/12 02:21:34;;;;;;;;;;;;;;;;;;4975841;28;7185;-60
2022/06/12 02:24:10;;;;;;;;;;;;;;;;;;4975909;28;7117;-60
2022/06/12 02:27:00;;;;;;;;;;;;;;;;;;4976612;28;7116;-60
2022/06/12 02:29:30;;;;;;;;;;;;;;;;;;4975767;28;7044;-60
2022/06/12 02:31:58;;;;;;;;;;;;;;;;;;4977924;28;6999;-60
2022/06/12 02:34:38;;;;;;;;;;;;;;;;;;4976836;28;7055;-60
2022/06/12 02:37:20;;;;;;;;;;;;;;;;;;4976856;28;7020;-60
2022/06/12 02:39:51;;;;;;;;;;;;;;;;;;4976641;28;7414;-60
2022/06/12 02:42:26;;;;;;;;;;;;;;;;;;4976596;28;7127;-60
2022/06/12 02:44:51;;;;;;;;;;;;;;;;;;4975525;28;7002;-60
2022/06/12 02:47:21;;;;;;;;;;;;;;;;;;4975722;28;7110;-60
2022/06/12 02:49:49;;;;;;;;;;;;;;;;;;4973051;28;7190;-60
2022/06/12 02:52:17;;;;;;;;;;;;;;;;;;4975513;28;7184;-60
2022/06/12 02:55:13;;;;;;;;;;;;;;;;;;4976112;28;7028;-60
2022/06/12 02:57:57;;;;;;;;;;;;;;;;;;4967054;28;7121;-60
2022/06/12 03:00:22;;;;;;;;;;;;;;;;;;4979169;28;7153;-60
2022/06/12 03:03:07;;;;;;;;;;;;;;;;;;4978928;28;7123;-60
2022/06/12 03:05:41;;;;;;;;;;;;;;;;;;4979418;28;7018;-60
2022/06/12 03:08:14;;;;;;;;;;;;;;;;;;4980443;28;7030;-60
2022/06/12 03:13:32;;;;;;;;;;;;;;;;;;4980008;28;6942;-60
2022/06/12 03:16:00;;;;;;;;;;;;;;;;;;4977574;28;7605;-60
2022/06/12 03:18:32;;;;;;;;;;;;;;;;;;4979206;28;6962;-60
2022/06/12 03:21:27;;;;;;;;;;;;;;;;;;4980575;28;7297;-60
2022/06/12 03:24:08;;;;;;;;;;;;;;;;;;4978193;28;7174;-60
2022/06/12 03:29:50;;;;;;;;;;;;;;;;;;4978777;28;6751;-60
2022/06/12 03:32:34;;;;;;;;;;;;;;;;;;4985019;28;7466;-60
2022/06/12 03:35:18;;;;;;;;;;;;;;;;;;4978805;28;7194;-60
2022/06/12 03:38:07;;;;;;;;;;;;;;;;;;4978669;28;7221;-60
2022/06/12 03:41:00;;;;;;;;;;;;;;;;;;4978834;28;6983;-60
2022/06/12 03:43:39;;;;;;;;;;;;;;;;;;4981866;28;7678;-60
2022/06/12 03:46:11;;;;;;;;;;;;;;;;;;4997485;28;7173;-60
2022/06/12 03:49:01;;;;;;;;;;;;;;;;;;4996093;28;7229;-60
2022/06/12 03:52:06;;;;;;;;;;;;;;;;;;4971250;28;7173;-60
2022/06/12 04:03:30;;;;;;;;;;;;;;;;;;4937355;29;7042;-60
2022/06/12 04:05:58;;;;;;;;;;;;;;;;;;4922909;29;7263;-55
2022/06/12 04:11:30;;;;;;;;;;;;;;;;;;4937554;29;6699;-60
2022/06/12 04:13:58;;;;;;;;;;;;;;;;;;4937579;29;7202;-60
2022/06/12 04:17:02;;;;;;;;;;;;;;;;;;4937364;29;7087;-60
2022/06/12 04:20:04;;;;;;;;;;;;;;;;;;4918110;29;9072;-60
2022/06/12 04:22:39;;;;;;;;;;;;;;;;;;4936951;29;7430;-60
2022/06/12 04:25:25;;;;;;;;;;;;;;;;;;4936822;29;8759;-60
2022/06/12 04:27:50;;;;;;;;;;;;;;;;;;4925796;29;7181;-60
2022/06/12 04:30:22;;;;;;;;;;;;;;;;;;4936856;29;6934;-60
2022/06/12 04:33:14;;;;;;;;;;;;;;;;;;4937284;29;7212;-60
2022/06/12 04:35:48;;;;;;;;;;;;;;;;;;4936816;29;6903;-60
2022/06/12 04:38:13;;;;;;;;;;;;;;;;;;4937349;29;7234;-50
2022/06/12 04:43:41;;;;;;;;;;;;;;;;;;4976910;28;6706;-52
2022/06/12 04:49:16;;;;;;;;;;;;;;;;;;4996142;28;7082;-55
2022/06/12 04:51:42;;;;;;;;;;;;;;;;;;4996635;28;6995;-55
2022/06/12 04:54:08;;;;;;;;;;;;;;;;;;4996385;28;7371;-55
2022/06/12 04:56:34;;;;;;;;;;;;;;;;;;4955194;28;11929;-53
2022/06/12 04:59:10;;;;;;;;;;;;;;;;;;4997648;28;7098;-54
2022/06/12 05:01:35;;;;;;;;;;;;;;;;;;4996237;28;7070;-53
2022/06/12 05:04:05;;;;;;;;;;;;;;;;;;4996559;28;7222;-53
2022/06/12 05:06:31;;;;;;;;;;;;;;;;;;4996150;28;7162;-56
2022/06/12 05:08:58;;;;;;;;;;;;;;;;;;4996231;28;7095;-55
2022/06/12 05:11:47;;;;;;;;;;;;;;;;;;4995988;28;7137;-56
2022/06/12 05:14:13;;;;;;;;;;;;;;;;;;4996312;28;8790;-56
2022/06/12 05:16:41;;;;;;;;;;;;;;;;;;4995273;28;7370;-54
2022/06/12 05:19:10;;;;;;;;;;;;;;;;;;4994881;28;6883;-54
2022/06/12 05:21:49;;;;;;;;;;;;;;;;;;4995856;28;7087;-56
2022/06/12 05:24:16;;;;;;;;;;;;;;;;;;4976241;28;7060;-56
2022/06/12 05:26:43;;;;;;;;;;;;;;;;;;4976160;28;7224;-55
2022/06/12 05:29:14;;;;;;;;;;;;;;;;;;4976000;28;7786;-54
2022/06/12 05:31:39;;;;;;;;;;;;;;;;;;4983035;28;7124;-55
2022/06/12 05:34:05;;;;;;;;;;;;;;;;;;4995637;28;7190;-54
2022/06/12 05:36:30;;;;;;;;;;;;;;;;;;4995254;28;7007;-56
2022/06/12 05:38:56;;;;;;;;;;;;;;;;;;4995389;28;7330;-53
2022/06/12 05:41:21;;;;;;;;;;;;;;;;;;4996484;28;7197;-55
2022/06/12 05:43:48;;;;;;;;;;;;;;;;;;4995527;28;7151;-55
2022/06/12 05:46:49;;;;;;;;;;;;;;;;;;4995006;28;7209;-56
2022/06/12 05:49:21;;;;;;;;;;;;;;;;;;4995464;28;7285;-55
2022/06/12 05:51:46;;;;;;;;;;;;;;;;;;4995753;28;6829;-55
2022/06/12 05:54:12;;;;;;;;;;;;;;;;;;4994895;28;7285;-55
2022/06/12 05:56:41;;;;;;;;;;;;;;;;;;4995220;28;7006;-54
2022/06/12 05:59:11;;;;;;;;;;;;;;;;;;4996266;28;7509;-55
2022/06/12 06:01:38;;;;;;;;;;;;;;;;;;4995547;28;7366;-55
2022/06/12 06:04:14;;;;;;;;;;;;;;;;;;4995864;28;6981;-56
2022/06/12 06:06:46;;;;;;;;;;;;;;;;;;4996092;28;6879;-54
2022/06/12 06:09:11;;;;;;;;;;;;;;;;;;4995882;28;7362;-57
2022/06/12 06:14:40;;;;;;;;;;;;;;;;;;4995161;28;6997;-55
2022/06/12 06:17:07;;;;;;;;;;;;;;;;;;4995280;28;7049;-55
2022/06/12 06:19:33;;;;;;;;;;;;;;;;;;4997229;28;7101;-57
2022/06/12 06:21:58;;;;;;;;;;;;;;;;;;4995149;28;7044;-57
2022/06/12 06:24:54;;;;;;;;;;;;;;;;;;4995825;28;6940;-55
2022/06/12 06:27:19;;;;;;;;;;;;;;;;;;4994845;28;8413;-55
2022/06/12 06:29:45;;;;;;;;;;;;;;;;;;4997442;28;7324;-56
2022/06/12 06:32:17;;;;;;;;;;;;;;;;;;4999194;28;7349;-56
2022/06/12 06:34:42;;;;;;;;;;;;;;;;;;4999190;28;6862;-55
2022/06/12 06:37:30;;;;;;;;;;;;;;;;;;4999079;28;7013;-57
2022/06/12 06:39:55;;;;;;;;;;;;;;;;;;4998734;28;7100;-53
2022/06/12 06:42:33;;;;;;;;;;;;;;;;;;4999211;28;7178;-56
2022/06/12 06:48:05;;;;;;;;;;;;;;;;;;4999612;28;6812;-56
2022/06/12 06:50:32;;;;;;;;;;;;;;;;;;4998885;28;6935;-56
2022/06/12 06:52:59;;;;;;;;;;;;;;;;;;4998981;28;7070;-57
2022/06/12 06:58:31;;;;;;;;;;;;;;;;;;4998576;28;6681;-56
2022/06/12 07:01:27;;;;;;;;;;;;;;;;;;4999379;28;7127;-60
2022/06/12 07:03:53;;;;;;;;;;;;;;;;;;4999174;28;7261;-60
2022/06/12 07:06:30;;;;;;;;;;;;;;;;;;4999892;28;7760;-60
2022/06/12 07:08:56;;;;;;;;;;;;;;;;;;4998781;28;7170;-60
2022/06/12 07:11:26;;;;;;;;;;;;;;;;;;4998401;28;7183;-61
2022/06/12 07:13:53;;;;;;;;;;;;;;;;;;4998155;28;8345;-61
2022/06/12 07:16:39;;;;;;;;;;;;;;;;;;4999073;28;7595;-61
2022/06/12 07:19:06;;;;;;;;;;;;;;;;;;4998419;28;7070;-61
2022/06/12 07:21:31;;;;;;;;;;;;;;;;;;4998259;28;7032;-61
2022/06/12 07:23:57;;;;;;;;;;;;;;;;;;4998188;28;7215;-60
2022/06/12 07:26:42;;;;;;;;;;;;;;;;;;4998695;28;7053;-60
2022/06/12 07:29:09;;;;;;;;;;;;;;;;;;4997709;28;6980;-60
2022/06/12 07:31:47;;;;;;;;;;;;;;;;;;4997911;28;6963;-60
2022/06/12 07:34:15;;;;;;;;;;;;;;;;;;4998079;28;7050;-60
2022/06/12 07:36:43;;;;;;;;;;;;;;;;;;4998169;28;6982;-60
2022/06/12 07:39:19;;;;;;;;;;;;;;;;;;4998123;28;7016;-60
2022/06/12 07:41:48;;;;;;;;;;;;;;;;;;4997881;28;7038;-60
2022/06/12 07:44:21;;;;;;;;;;;;;;;;;;4997816;28;7241;-60
2022/06/12 07:46:49;;;;;;;;;;;;;;;;;;4997644;28;7142;-61
2022/06/12 07:49:17;;;;;;;;;;;;;;;;;;4996490;28;8109;-61
2022/06/12 07:51:43;;;;;;;;;;;;;;;;;;4997930;28;6980;-61
2022/06/12 07:54:30;;;;;;;;;;;;;;;;;;4997567;28;7106;-60
2022/06/12 07:57:09;;;;;;;;;;;;;;;;;;4997816;28;7132;-60
2022/06/12 07:59:35;;;;;;;;;;;;;;;;;;4996933;28;6870;-60
2022/06/12 08:02:01;;;;;;;;;;;;;;;;;;4997196;28;7129;-60
2022/06/12 08:04:29;;;;;;;;;;;;;;;;;;4997674;28;7353;-56
2022/06/12 08:06:55;;;;;;;;;;;;;;;;;;4997635;28;7063;-57
2022/06/12 08:09:21;;;;;;;;;;;;;;;;;;4996277;28;8517;-57
2022/06/12 08:11:55;;;;;;;;;;;;;;;;;;4997378;28;7907;-57
2022/06/12 08:14:22;;;;;;;;;;;;;;;;;;4997512;28;7130;-60
2022/06/12 08:16:56;;;;;;;;;;;;;;;;;;4997282;28;6977;-57
2022/06/12 08:22:25;;;;;;;;;;;;;;;;;;4996914;28;6990;-58
2022/06/12 08:27:39;;;;;;;;;;;;;;;;;;4996944;28;6785;-57
2022/06/12 08:30:05;;;;;;;;;;;;;;;;;;4996918;28;7157;-59
2022/06/12 08:32:50;;;;;;;;;;;;;;;;;;4996836;28;7176;-58
2022/06/12 08:35:22;;;;;;;;;;;;;;;;;;4997130;28;6872;-57
2022/06/12 08:37:47;;;;;;;;;;;;;;;;;;4996557;28;7947;-58
2022/06/12 08:46:20;;;;;;;;;;;;;;;;;;4996813;28;7016;-56
2022/06/12 08:49:12;;;;;;;;;;;;;;;;;;4996373;28;7410;-58
2022/06/12 08:52:12;;;;;;;;;;;;;;;;;;4996400;28;7879;-58
2022/06/12 08:54:47;;;;;;;;;;;;;;;;;;4995958;28;7987;-61
2022/06/12 08:57:15;;;;;;;;;;;;;;;;;;4996292;28;7222;-58
2022/06/12 08:59:49;;;;;;;;;;;;;;;;;;4996144;28;7066;-58
2022/06/12 09:02:19;;;;;;;;;;;;;;;;;;4996258;28;7173;-58
2022/06/12 09:04:45;;;;;;;;;;;;;;;;;;4996321;28;7180;-63
2022/06/12 09:07:18;;;;;;;;;;;;;;;;;;4995825;28;7191;-58
2022/06/12 09:10:03;;;;;;;;;;;;;;;;;;4995882;28;6973;-57
2022/06/12 09:12:44;;;;;;;;;;;;;;;;;;4995773;28;7854;-61
2022/06/12 09:15:15;;;;;;;;;;;;;;;;;;4993155;28;7205;-61
2022/06/12 09:17:50;;;;;;;;;;;;;;;;;;4995114;28;7434;-61
2022/06/12 09:20:35;;;;;;;;;;;;;;;;;;4994986;28;7069;-61
2022/06/12 09:23:07;;;;;;;;;;;;;;;;;;4954162;28;7218;-61
2022/06/12 09:25:50;;;;;;;;;;;;;;;;;;4954178;28;7271;-61
2022/06/12 09:28:39;;;;;;;;;;;;;;;;;;4954453;28;7132;-61
2022/06/12 09:31:04;;;;;;;;;;;;;;;;;;4954209;28;7202;-61
2022/06/12 09:33:35;;;;;;;;;;;;;;;;;;4954080;28;7154;-61
2022/06/12 09:36:23;;;;;;;;;;;;;;;;;;4954044;28;7177;-61
2022/06/12 09:39:06;;;;;;;;;;;;;;;;;;4953915;28;7108;-61
2022/06/12 09:41:42;;;;;;;;;;;;;;;;;;4954649;28;7078;-61
2022/06/12 09:44:49;;;;;;;;;;;;;;;;;;4954608;28;7195;-61
2022/06/12 09:47:21;;;;;;;;;;;;;;;;;;4954835;28;7109;-61
2022/06/12 09:49:49;;;;;;;;;;;;;;;;;;4953374;28;7187;-61
2022/06/12 09:52:29;;;;;;;;;;;;;;;;;;4954673;29;7321;-61
2022/06/12 09:55:01;;;;;;;;;;;;;;;;;;4954129;29;7242;-61
2022/06/12 09:58:00;;;;;;;;;;;;;;;;;;4954372;29;7450;-61
2022/06/12 10:00:38;;;;;;;;;;;;;;;;;;4968638;28;7304;-61
2022/06/12 10:03:07;;;;;;;;;;;;;;;;;;4975964;28;7190;-61
2022/06/12 10:05:46;;;;;;;;;;;;;;;;;;4979283;28;7363;-61
2022/06/12 10:08:23;;;;;;;;;;;;;;;;;;4980207;28;7138;-61
2022/06/12 10:10:55;;;;;;;;;;;;;;;;;;4980429;28;6947;-61
2022/06/12 10:13:42;;;;;;;;;;;;;;;;;;4981180;28;7173;-61
2022/06/12 10:16:32;;;;;;;;;;;;;;;;;;4998467;28;6992;-61
2022/06/12 10:22:26;;;;;;;;;;;;;;;;;;4998748;28;6813;-61
2022/06/12 10:24:52;;;;;;;;;;;;;;;;;;4999477;28;7415;-61
2022/06/12 10:27:26;;;;;;;;;;;;;;;;;;4998917;28;6864;-61
2022/06/12 10:29:57;;;;;;;;;;;;;;;;;;5012074;28;9119;-61
2022/06/12 10:33:00;;;;;;;;;;;;;;;;;;4999146;28;6976;-61
2022/06/12 10:35:26;;;;;;;;;;;;;;;;;;4999026;28;7005;-61
2022/06/12 10:38:06;;;;;;;;;;;;;;;;;;4998663;28;7074;-61
2022/06/12 10:40:33;;;;;;;;;;;;;;;;;;4998455;28;7938;-61
2022/06/12 10:43:10;;;;;;;;;;;;;;;;;;4998698;28;7325;-61
2022/06/12 10:45:38;;;;;;;;;;;;;;;;;;4998726;28;6993;-61
2022/06/12 10:54:12;;;;;;;;;;;;;;;;;;4999035;28;6964;-60
2022/06/12 10:56:44;;;;;;;;;;;;;;;;;;4999602;28;7183;-60
2022/06/12 10:59:21;;;;;;;;;;;;;;;;;;4998116;28;7230;-60
2022/06/12 11:08:16;;;;;;;;;;;;;;;;;;4998158;28;6947;-60
2022/06/12 11:10:43;;;;;;;;;;;;;;;;;;4998727;28;7222;-60
2022/06/12 11:13:18;;;;;;;;;;;;;;;;;;4998354;28;7431;-60
2022/06/12 11:15:55;;;;;;;;;;;;;;;;;;4997788;28;7153;-60
2022/06/12 11:18:43;;;;;;;;;;;;;;;;;;4997931;28;7094;-60
2022/06/12 11:21:30;;;;;;;;;;;;;;;;;;4992753;28;8823;-60
2022/06/12 11:23:56;;;;;;;;;;;;;;;;;;4998027;28;8589;-60
2022/06/12 11:26:37;;;;;;;;;;;;;;;;;;4998126;28;7469;-60
2022/06/12 11:29:10;;;;;;;;;;;;;;;;;;4997554;28;7241;-56
2022/06/12 11:31:42;;;;;;;;;;;;;;;;;;4993246;28;7170;-53
2022/06/12 11:34:13;;;;;;;;;;;;;;;;;;4997294;28;7234;-55
2022/06/12 11:36:42;;;;;;;;;;;;;;;;;;4997231;28;8150;-57
2022/06/12 11:42:25;;;;;;;;;;;;;;;;;;4997235;28;6746;-54
2022/06/12 11:45:00;;;;;;;;;;;;;;;;;;4997343;28;7186;-53
2022/06/12 11:50:20;;;;;;;;;;;;;;;;;;4997499;28;7150;-53
2022/06/12 11:53:02;;;;;;;;;;;;;;;;;;4997482;28;7028;-55
2022/06/12 11:55:54;;;;;;;;;;;;;;;;;;4997946;28;7002;-55
2022/06/12 11:58:23;;;;;;;;;;;;;;;;;;4998087;28;6991;-57
2022/06/12 12:01:00;;;;;;;;;;;;;;;;;;4997170;28;6969;-55
2022/06/12 12:03:56;;;;;;;;;;;;;;;;;;4997999;28;7393;-56
2022/06/12 12:09:40;;;;;;;;;;;;;;;;;;4996863;28;7096;-56
2022/06/12 12:12:14;;;;;;;;;;;;;;;;;;4996741;28;7562;-55
2022/06/12 12:18:16;;;;;;;;;;;;;;;;;;4996571;28;6956;-56
2022/06/12 12:20:45;;;;;;;;;;;;;;;;;;4997207;28;7550;-57
2022/06/12 12:23:18;;;;;;;;;;;;;;;;;;4996737;28;8222;-55
2022/06/12 12:25:43;;;;;;;;;;;;;;;;;;4997069;28;7135;-56
2022/06/12 12:28:23;;;;;;;;;;;;;;;;;;4995226;28;7152;-57
2022/06/12 12:30:53;;;;;;;;;;;;;;;;;;4994588;28;7368;-55
2022/06/12 12:33:32;;;;;;;;;;;;;;;;;;4997280;28;7098;-57
2022/06/12 12:41:42;;;;;;;;;;;;;;;;;;4996529;28;7548;-56
2022/06/12 12:44:11;;;;;;;;;;;;;;;;;;4997405;28;7352;-57
2022/06/12 12:46:48;;;;;;;;;;;;;;;;;;4996608;28;7159;-57
2022/06/12 12:52:21;;;;;;;;;;;;;;;;;;4995804;28;7025;-56
2022/06/12 12:54:52;;;;;;;;;;;;;;;;;;4995781;28;7252;-56
2022/06/12 12:57:41;;;;;;;;;;;;;;;;;;4995875;28;7227;-57
2022/06/12 13:00:32;;;;;;;;;;;;;;;;;;4995712;28;7005;-57
2022/06/12 13:03:00;;;;;;;;;;;;;;;;;;4995784;28;7152;-57
2022/06/12 13:05:41;;;;;;;;;;;;;;;;;;4996288;28;7223;-57
2022/06/12 13:08:19;;;;;;;;;;;;;;;;;;4995838;28;6998;-57
2022/06/12 13:11:16;;;;;;;;;;;;;;;;;;4995643;28;8233;-57
2022/06/12 13:13:42;;;;;;;;;;;;;;;;;;4996335;28;6864;-60
2022/06/12 13:16:44;;;;;;;;;;;;;;;;;;4995936;28;7129;-60
2022/06/12 13:19:28;;;;;;;;;;;;;;;;;;4995648;28;7205;-57
2022/06/12 13:22:26;;;;;;;;;;;;;;;;;;4995798;28;7216;-57
2022/06/12 13:34:06;;;;;;;;;;;;;;;;;;4995322;28;6945;-57
2022/06/12 13:36:42;;;;;;;;;;;;;;;;;;4995446;28;7057;-58
2022/06/12 13:42:22;;;;;;;;;;;;;;;;;;4995009;28;6755;-58
2022/06/12 13:44:49;;;;;;;;;;;;;;;;;;4995403;28;7214;-57
2022/06/12 13:47:35;;;;;;;;;;;;;;;;;;4995640;28;7154;-56
2022/06/12 13:50:04;;;;;;;;;;;;;;;;;;4994626;28;7142;-58
2022/06/12 13:53:04;;;;;;;;;;;;;;;;;;4995544;28;7320;-58
2022/06/12 13:55:47;;;;;;;;;;;;;;;;;;4994409;28;7082;-58
2022/06/12 13:58:24;;;;;;;;;;;;;;;;;;5011682;28;7177;-59
2022/06/12 14:01:00;;;;;;;;;;;;;;;;;;5015014;28;7228;-58
2022/06/12 14:03:28;;;;;;;;;;;;;;;;;;5014538;28;7142;-58
2022/06/12 14:06:14;;;;;;;;;;;;;;;;;;5014484;28;8361;-57
2022/06/12 14:08:41;;;;;;;;;;;;;;;;;;5014510;28;7131;-58
2022/06/12 14:11:21;;;;;;;;;;;;;;;;;;5014521;28;7467;-57
2022/06/12 14:13:47;;;;;;;;;;;;;;;;;;5014482;28;7481;-57
2022/06/12 14:16:25;;;;;;;;;;;;;;;;;;5014546;28;7169;-57
2022/06/12 14:19:00;;;;;;;;;;;;;;;;;;5014472;28;7172;-58
2022/06/12 14:21:44;;;;;;;;;;;;;;;;;;5014206;28;7271;-58
2022/06/12 14:24:16;;;;;;;;;;;;;;;;;;5014331;28;7141;-59
2022/06/12 14:26:48;;;;;;;;;;;;;;;;;;5014719;28;7080;-58
2022/06/12 14:29:30;;;;;;;;;;;;;;;;;;5014238;28;8202;-58
2022/06/12 14:32:15;;;;;;;;;;;;;;;;;;5011263;28;7225;-58
2022/06/12 14:34:43;;;;;;;;;;;;;;;;;;5014647;28;6998;-58
2022/06/12 14:37:33;;;;;;;;;;;;;;;;;;5015420;28;7230;-58
2022/06/12 14:40:16;;;;;;;;;;;;;;;;;;5006605;28;6857;-58
2022/06/12 14:42:42;;;;;;;;;;;;;;;;;;4994258;28;7758;-58
2022/06/12 14:48:24;;;;;;;;;;;;;;;;;;4994456;28;7093;-58
2022/06/12 14:50:50;;;;;;;;;;;;;;;;;;4994981;28;7288;-58
2022/06/12 14:53:39;;;;;;;;;;;;;;;;;;4998508;28;7392;-58
2022/06/12 14:56:18;;;;;;;;;;;;;;;;;;4998518;28;6976;-61
2022/06/12 14:58:51;;;;;;;;;;;;;;;;;;4998915;28;7215;-61
2022/06/12 15:01:20;;;;;;;;;;;;;;;;;;4997089;28;7037;-61
2022/06/12 15:03:48;;;;;;;;;;;;;;;;;;4998411;28;7177;-61
2022/06/12 15:06:15;;;;;;;;;;;;;;;;;;4998460;28;7178;-61
2022/06/12 15:08:42;;;;;;;;;;;;;;;;;;4997593;28;6976;-61
2022/06/12 15:11:17;;;;;;;;;;;;;;;;;;4997241;28;7426;-61
2022/06/12 15:14:00;;;;;;;;;;;;;;;;;;4996215;28;6983;-61
2022/06/12 15:16:28;;;;;;;;;;;;;;;;;;4996120;28;6882;-61
2022/06/12 15:19:00;;;;;;;;;;;;;;;;;;4996359;28;7246;-61
2022/06/12 15:21:38;;;;;;;;;;;;;;;;;;4996278;28;7045;-61
2022/06/12 15:24:20;;;;;;;;;;;;;;;;;;4997939;28;7009;-61
2022/06/12 15:32:36;;;;;;;;;;;;;;;;;;4997141;28;6742;-61
2022/06/12 15:35:18;;;;;;;;;;;;;;;;;;4996942;28;6979;-61
2022/06/12 15:37:47;;;;;;;;;;;;;;;;;;4997157;28;6879;-61
2022/06/12 15:40:28;;;;;;;;;;;;;;;;;;4947116;28;7322;-61
2022/06/12 15:42:54;;;;;;;;;;;;;;;;;;4995730;28;7237;-61
2022/06/12 15:45:21;;;;;;;;;;;;;;;;;;4995743;28;6977;-61
2022/06/12 15:47:47;;;;;;;;;;;;;;;;;;4996168;28;7143;-61
2022/06/12 15:50:28;;;;;;;;;;;;;;;;;;4997657;28;6949;-61
2022/06/12 15:52:54;;;;;;;;;;;;;;;;;;4996441;28;7426;-61
2022/06/12 15:55:30;;;;;;;;;;;;;;;;;;4995849;28;7443;-61
2022/06/12 15:57:56;;;;;;;;;;;;;;;;;;4997438;28;6984;-62
2022/06/12 16:00:23;;;;;;;;;;;;;;;;;;4997200;28;7024;-62
2022/06/12 16:03:10;;;;;;;;;;;;;;;;;;4996887;28;7357;-62
2022/06/12 16:05:36;;;;;;;;;;;;;;;;;;4998361;28;7459;-62
2022/06/12 16:11:10;;;;;;;;;;;;;;;;;;4999026;28;7002;-61
2022/06/12 16:13:35;;;;;;;;;;;;;;;;;;4997023;28;7161;-61
2022/06/12 16:16:13;;;;;;;;;;;;;;;;;;4996740;28;7232;-61
2022/06/12 16:18:38;;;;;;;;;;;;;;;;;;4997178;28;7163;-61
2022/06/12 16:21:04;;;;;;;;;;;;;;;;;;4997050;28;7068;-61
2022/06/12 16:23:32;;;;;;;;;;;;;;;;;;4998573;28;6866;-61
2022/06/12 16:26:14;;;;;;;;;;;;;;;;;;4996848;28;7140;-61
2022/06/12 16:28:40;;;;;;;;;;;;;;;;;;4959613;28;16411;-61
2022/06/12 16:31:08;;;;;;;;;;;;;;;;;;4994336;28;7042;-61
2022/06/12 16:33:34;;;;;;;;;;;;;;;;;;4997140;28;7088;-61
2022/06/12 16:36:19;;;;;;;;;;;;;;;;;;4997568;28;7248;-62
2022/06/12 16:38:45;;;;;;;;;;;;;;;;;;4996656;28;7312;-62
2022/06/12 16:41:10;;;;;;;;;;;;;;;;;;4996559;28;7129;-61
2022/06/12 16:43:36;;;;;;;;;;;;;;;;;;4996856;28;7176;-61
2022/06/12 16:46:03;;;;;;;;;;;;;;;;;;4996840;28;6831;-60
2022/06/12 16:48:29;;;;;;;;;;;;;;;;;;4996032;28;7050;-61
2022/06/12 16:51:22;;;;;;;;;;;;;;;;;;4996868;28;7145;-61
2022/06/12 16:53:47;;;;;;;;;;;;;;;;;;4996423;28;7374;-61
2022/06/12 16:56:13;;;;;;;;;;;;;;;;;;4995736;28;7112;-61
2022/06/12 16:58:43;;;;;;;;;;;;;;;;;;4956432;28;12315;-61
2022/06/12 17:01:09;;;;;;;;;;;;;;;;;;4996507;28;7435;-60
2022/06/12 17:03:35;;;;;;;;;;;;;;;;;;4996736;28;7254;-61
2022/06/12 17:06:00;;;;;;;;;;;;;;;;;;4995859;28;7616;-61
2022/06/12 17:08:27;;;;;;;;;;;;;;;;;;4996015;28;7027;-61
2022/06/12 17:10:52;;;;;;;;;;;;;;;;;;4996432;28;6833;-61
2022/06/12 17:13:18;;;;;;;;;;;;;;;;;;4995547;28;7195;-61
2022/06/12 17:15:43;;;;;;;;;;;;;;;;;;4996051;28;7138;-61
2022/06/12 17:21:03;;;;;;;;;;;;;;;;;;4996587;28;6990;-61
2022/06/12 17:23:34;;;;;;;;;;;;;;;;;;4996947;28;6936;-61
2022/06/12 17:26:00;;;;;;;;;;;;;;;;;;4996012;28;7194;-61
2022/06/12 17:28:25;;;;;;;;;;;;;;;;;;4996323;28;7221;-61
2022/06/12 17:31:16;;;;;;;;;;;;;;;;;;4994457;28;7241;-61
2022/06/12 17:33:42;;;;;;;;;;;;;;;;;;4995779;28;7140;-61
2022/06/12 17:36:20;;;;;;;;;;;;;;;;;;4995648;28;7396;-61
2022/06/12 17:38:46;;;;;;;;;;;;;;;;;;4995686;28;6981;-61
2022/06/12 17:41:26;;;;;;;;;;;;;;;;;;4996059;28;7401;-61
2022/06/12 17:43:51;;;;;;;;;;;;;;;;;;4995462;28;7009;-61
2022/06/12 17:46:39;;;;;;;;;;;;;;;;;;4995584;28;6956;-61
2022/06/12 17:49:06;;;;;;;;;;;;;;;;;;4995274;28;7442;-61
2022/06/12 17:51:38;;;;;;;;;;;;;;;;;;4995475;28;7403;-61
2022/06/12 17:54:04;;;;;;;;;;;;;;;;;;4995182;28;6993;-61
2022/06/12 17:59:42;;;;;;;;;;;;;;;;;;4995243;28;7120;-61
2022/06/12 18:02:07;;;;;;;;;;;;;;;;;;4995423;28;7229;-61
2022/06/12 18:04:45;;;;;;;;;;;;;;;;;;4996176;28;7278;-61
2022/06/12 18:07:12;;;;;;;;;;;;;;;;;;4995416;28;6960;-61
2022/06/12 18:09:39;;;;;;;;;;;;;;;;;;4994974;28;6954;-61
2022/06/12 18:12:17;;;;;;;;;;;;;;;;;;4995665;28;7164;-61
2022/06/12 18:20:11;;;;;;;;;;;;;;;;;;4995404;28;7159;-61
2022/06/12 18:22:36;;;;;;;;;;;;;;;;;;4995497;28;7358;-61
2022/06/12 18:25:02;;;;;;;;;;;;;;;;;;4996532;28;7271;-61
2022/06/12 18:27:30;;;;;;;;;;;;;;;;;;4999934;28;7150;-61
2022/06/12 18:29:56;;;;;;;;;;;;;;;;;;4999836;28;7169;-61
2022/06/12 18:32:28;;;;;;;;;;;;;;;;;;4999071;28;6964;-61
2022/06/12 18:34:54;;;;;;;;;;;;;;;;;;4999072;28;8207;-61
2022/06/12 18:37:20;;;;;;;;;;;;;;;;;;4999116;28;7199;-61
2022/06/12 18:39:46;;;;;;;;;;;;;;;;;;4999611;28;6962;-61
2022/06/12 18:42:12;;;;;;;;;;;;;;;;;;4999076;28;7185;-57
2022/06/12 18:44:40;;;;;;;;;;;;;;;;;;4999159;28;7010;-57
2022/06/12 18:47:05;;;;;;;;;;;;;;;;;;4999822;28;7052;-58
2022/06/12 18:49:37;;;;;;;;;;;;;;;;;;4998841;28;7106;-57
2022/06/12 18:52:03;;;;;;;;;;;;;;;;;;4998438;28;7832;-57
2022/06/12 18:54:50;;;;;;;;;;;;;;;;;;4999324;28;6955;-57
2022/06/12 18:57:17;;;;;;;;;;;;;;;;;;4998696;28;7053;-57
2022/06/12 18:59:44;;;;;;;;;;;;;;;;;;4998569;28;8298;-56
2022/06/12 19:02:30;;;;;;;;;;;;;;;;;;4998754;28;7209;-56
2022/06/12 19:04:57;;;;;;;;;;;;;;;;;;4998795;28;7076;-56
2022/06/12 19:07:23;;;;;;;;;;;;;;;;;;4998637;28;6949;-57
2022/06/12 19:09:49;;;;;;;;;;;;;;;;;;4998388;28;7156;-55
2022/06/12 19:12:17;;;;;;;;;;;;;;;;;;4998429;28;7219;-56
2022/06/12 19:14:45;;;;;;;;;;;;;;;;;;4998589;28;7174;-55
2022/06/12 19:17:32;;;;;;;;;;;;;;;;;;4998427;28;7091;-57
2022/06/12 19:19:58;;;;;;;;;;;;;;;;;;4998191;28;7240;-57
2022/06/12 19:22:24;;;;;;;;;;;;;;;;;;4998133;28;7024;-56
2022/06/12 19:24:51;;;;;;;;;;;;;;;;;;4998330;28;7164;-57
2022/06/12 19:27:16;;;;;;;;;;;;;;;;;;4997947;28;7178;-57
2022/06/12 19:29:58;;;;;;;;;;;;;;;;;;4997888;28;7877;-58
2022/06/12 19:32:24;;;;;;;;;;;;;;;;;;4997802;28;7073;-57
2022/06/12 19:34:50;;;;;;;;;;;;;;;;;;4997810;28;6947;-58
2022/06/12 19:37:18;;;;;;;;;;;;;;;;;;4997578;28;7170;-57
2022/06/12 19:39:44;;;;;;;;;;;;;;;;;;4998082;28;7168;-57
2022/06/12 19:42:09;;;;;;;;;;;;;;;;;;4997987;28;6976;-57
2022/06/12 19:44:37;;;;;;;;;;;;;;;;;;4997694;28;7104;-56
2022/06/12 19:47:08;;;;;;;;;;;;;;;;;;4994280;28;6954;-56
2022/06/12 19:49:36;;;;;;;;;;;;;;;;;;4998310;28;7171;-56
2022/06/12 19:52:03;;;;;;;;;;;;;;;;;;4997567;28;7232;-56
2022/06/12 19:54:36;;;;;;;;;;;;;;;;;;4998538;28;7167;-57